createdAt,value
2023-04-30T00:00:51.863Z,11.15
2023-04-30T00:03:18.371Z,11.14
2023-04-30T00:05:44.853Z,11.19
2023-04-30T00:08:15.823Z,11.14
2023-04-30T00:10:42.204Z,11.10
2023-04-30T00:13:10.183Z,11.10
2023-04-30T00:15:36.787Z,11.08
2023-04-30T00:18:06.998Z,11.05
2023-04-30T00:20:35.266Z,11.02
2023-04-30T00:23:04.093Z,11.00
2023-04-30T00:25:30.696Z,10.98
2023-04-30T00:27:57.275Z,10.96
2023-04-30T00:30:23.832Z,10.96
2023-04-30T00:32:50.341Z,10.95
2023-04-30T00:35:16.932Z,10.97
2023-04-30T00:37:43.362Z,10.96
2023-04-30T00:40:12.784Z,10.96
2023-04-30T00:42:39.206Z,10.95
2023-04-30T00:45:06.395Z,10.96
2023-04-30T00:47:32.868Z,10.94
2023-04-30T00:50:02.573Z,10.91
2023-04-30T00:52:29.262Z,10.91
2023-04-30T00:54:55.927Z,10.93
2023-04-30T00:57:22.928Z,10.89
2023-04-30T00:59:49.369Z,10.86
2023-04-30T01:02:15.934Z,10.87
2023-04-30T01:04:42.531Z,10.82
2023-04-30T01:07:09.233Z,10.79
2023-04-30T01:09:36.036Z,10.77
2023-04-30T01:12:13.848Z,10.76
2023-04-30T01:15:15.167Z,10.75
2023-04-30T01:17:53.046Z,10.75
2023-04-30T01:20:20.221Z,10.69
2023-04-30T01:23:12.862Z,10.67
2023-04-30T01:25:39.522Z,10.64
2023-04-30T01:28:06.714Z,10.64
2023-04-30T01:30:34.440Z,10.64
2023-04-30T01:33:01.067Z,10.64
2023-04-30T01:35:43.429Z,10.63
2023-04-30T01:38:22.010Z,10.61
2023-04-30T01:40:57.874Z,10.61
2023-04-30T01:43:37.771Z,10.62
2023-04-30T01:46:15.958Z,10.60
2023-04-30T01:49:06.619Z,10.67
2023-04-30T01:51:40.879Z,10.65
2023-04-30T01:54:15.835Z,10.66
2023-04-30T01:56:53.356Z,10.67
2023-04-30T01:59:20.585Z,10.71
2023-04-30T02:01:49.710Z,10.71
2023-04-30T02:04:16.212Z,10.71
2023-04-30T02:06:42.728Z,10.71
2023-04-30T02:09:10.670Z,10.73
2023-04-30T02:11:37.107Z,10.71
2023-04-30T02:14:03.806Z,10.69
2023-04-30T02:16:30.381Z,10.69
2023-04-30T02:18:56.862Z,10.70
2023-04-30T02:21:25.669Z,10.69
2023-04-30T02:23:52.123Z,10.68
2023-04-30T02:26:18.583Z,10.67
2023-04-30T02:28:45.003Z,10.69
2023-04-30T02:31:13.714Z,10.65
2023-04-30T02:33:40.269Z,10.62
2023-04-30T02:36:06.761Z,10.59
2023-04-30T02:38:54.404Z,10.57
2023-04-30T02:41:21.797Z,10.55
2023-04-30T02:43:48.211Z,10.54
2023-04-30T02:46:14.726Z,10.55
2023-04-30T02:48:41.354Z,10.59
2023-04-30T02:51:08.165Z,10.58
2023-04-30T02:53:34.556Z,10.59
2023-04-30T02:56:01.048Z,10.65
2023-04-30T02:58:27.388Z,10.65
2023-04-30T03:00:53.834Z,10.69
2023-04-30T03:03:20.751Z,10.86
2023-04-30T03:05:47.292Z,11.20
2023-04-30T03:08:13.852Z,11.10
2023-04-30T03:10:42.739Z,11.05
2023-04-30T03:13:09.190Z,11.16
2023-04-30T03:15:37.970Z,11.05
2023-04-30T03:18:04.999Z,11.04
2023-04-30T03:20:31.377Z,11.03
2023-04-30T03:22:57.756Z,11.18
2023-04-30T03:25:24.336Z,11.08
2023-04-30T03:27:50.706Z,11.04
2023-04-30T03:30:17.097Z,11.03
2023-04-30T03:32:43.505Z,10.97
2023-04-30T03:35:10.072Z,10.95
2023-04-30T03:37:36.517Z,10.92
2023-04-30T03:40:03.617Z,10.88
2023-04-30T03:42:30.112Z,10.82
2023-04-30T03:44:56.627Z,10.80
2023-04-30T03:47:23.138Z,10.81
2023-04-30T03:49:55.063Z,10.81
2023-04-30T03:52:22.466Z,10.88
2023-04-30T03:54:48.910Z,10.79
2023-04-30T03:57:15.294Z,10.75
2023-04-30T03:59:42.053Z,10.76
2023-04-30T04:02:08.783Z,10.70
2023-04-30T04:04:35.396Z,10.82
2023-04-30T04:07:03.296Z,10.77
2023-04-30T04:09:29.945Z,10.72
2023-04-30T04:11:59.420Z,10.76
2023-04-30T04:14:25.872Z,10.79
2023-04-30T04:16:52.395Z,10.79
2023-04-30T04:19:18.757Z,10.80
2023-04-30T04:21:45.190Z,10.87
2023-04-30T04:24:14.902Z,10.86
2023-04-30T04:26:41.568Z,10.91
2023-04-30T04:29:12.107Z,10.87
2023-04-30T04:31:38.717Z,10.85
2023-04-30T04:34:05.690Z,10.90
2023-04-30T04:36:33.380Z,10.84
2023-04-30T04:39:03.858Z,10.86
2023-04-30T04:41:38.180Z,10.88
2023-04-30T04:44:04.891Z,10.89
2023-04-30T04:46:35.005Z,10.89
2023-04-30T04:49:01.950Z,10.89
2023-04-30T04:51:28.546Z,10.92
2023-04-30T04:53:55.131Z,10.97
2023-04-30T04:56:21.488Z,11.01
2023-04-30T04:58:47.926Z,11.07
2023-04-30T05:01:14.612Z,11.10
2023-04-30T05:03:41.650Z,11.12
2023-04-30T05:06:08.265Z,11.24
2023-04-30T05:08:34.790Z,11.36
2023-04-30T05:11:03.944Z,11.47
2023-04-30T05:13:30.630Z,11.65
2023-04-30T05:15:57.157Z,11.85
2023-04-30T05:18:23.640Z,12.02
2023-04-30T05:20:52.793Z,12.21
2023-04-30T05:23:21.538Z,12.38
2023-04-30T05:25:52.210Z,12.42
2023-04-30T05:28:18.776Z,12.39
2023-04-30T05:30:45.691Z,12.26
2023-04-30T05:33:12.133Z,12.30
2023-04-30T05:35:38.651Z,12.17
2023-04-30T05:38:05.016Z,12.26
2023-04-30T05:40:32.321Z,12.22
2023-04-30T05:42:58.744Z,12.20
2023-04-30T05:45:27.736Z,12.25
2023-04-30T05:47:54.206Z,12.29
2023-04-30T05:50:20.712Z,12.39
2023-04-30T05:52:47.057Z,12.46
2023-04-30T05:55:13.762Z,12.47
2023-04-30T05:57:40.337Z,12.56
2023-04-30T06:00:07.633Z,12.62
2023-04-30T06:02:34.496Z,12.77
2023-04-30T06:05:03.131Z,12.84
2023-04-30T06:07:32.545Z,13.01
2023-04-30T06:09:59.038Z,13.07
2023-04-30T06:12:25.993Z,13.12
2023-04-30T06:14:54.962Z,13.31
2023-04-30T06:17:24.018Z,13.29
2023-04-30T06:19:55.472Z,13.36
2023-04-30T06:22:22.158Z,13.68
2023-04-30T06:24:48.525Z,13.73
2023-04-30T06:27:14.940Z,13.74
2023-04-30T06:29:43.615Z,13.77
2023-04-30T06:32:10.087Z,13.91
2023-04-30T06:34:37.093Z,14.14
2023-04-30T06:37:03.522Z,14.21
2023-04-30T06:39:30.348Z,14.46
2023-04-30T06:41:56.950Z,14.50
2023-04-30T06:44:23.329Z,14.66
2023-04-30T06:46:49.726Z,14.56
2023-04-30T06:49:18.333Z,14.82
2023-04-30T06:51:47.043Z,14.78
2023-04-30T06:54:18.237Z,14.87
2023-04-30T06:56:49.250Z,15.00
2023-04-30T06:59:16.562Z,15.19
2023-04-30T07:01:42.976Z,15.09
2023-04-30T07:04:09.551Z,15.09
2023-04-30T07:06:36.322Z,15.16
2023-04-30T07:09:03.478Z,15.03
2023-04-30T07:11:29.922Z,15.35
2023-04-30T07:13:56.931Z,15.50
2023-04-30T07:16:25.821Z,15.42
2023-04-30T07:18:52.530Z,15.68
2023-04-30T07:21:19.060Z,15.69
2023-04-30T07:23:45.615Z,15.97
2023-04-30T07:26:12.171Z,15.86
2023-04-30T07:28:38.576Z,15.87
2023-04-30T07:31:07.587Z,16.01
2023-04-30T07:33:36.357Z,16.09
2023-04-30T07:36:02.717Z,16.10
2023-04-30T07:38:29.394Z,16.27
2023-04-30T07:40:56.250Z,16.10
2023-04-30T07:43:22.640Z,15.83
2023-04-30T07:45:49.990Z,16.12
2023-04-30T07:48:23.697Z,15.86
2023-04-30T07:50:52.126Z,16.06
2023-04-30T07:53:21.754Z,16.56
2023-04-30T07:55:48.278Z,16.53
2023-04-30T07:58:14.846Z,17.01
2023-04-30T08:00:41.347Z,16.64
2023-04-30T08:03:10.446Z,16.81
2023-04-30T08:05:36.954Z,17.32
2023-04-30T08:08:08.272Z,17.09
2023-04-30T08:10:35.059Z,17.24
2023-04-30T08:13:01.502Z,16.93
2023-04-30T08:15:30.743Z,16.76
2023-04-30T08:17:57.281Z,16.63
2023-04-30T08:20:23.914Z,16.50
2023-04-30T08:22:51.024Z,16.31
2023-04-30T08:25:19.763Z,16.67
2023-04-30T08:27:46.583Z,16.52
2023-04-30T08:30:12.951Z,16.57
2023-04-30T08:32:44.320Z,16.38
2023-04-30T08:35:10.889Z,16.07
2023-04-30T08:37:39.473Z,15.94
2023-04-30T08:40:09.714Z,15.86
2023-04-30T08:42:37.537Z,15.71
2023-04-30T08:45:04.823Z,15.85
2023-04-30T08:47:31.952Z,15.94
2023-04-30T08:49:58.390Z,15.97
2023-04-30T08:52:26.760Z,16.00
2023-04-30T08:54:57.208Z,16.11
2023-04-30T08:57:23.624Z,16.13
2023-04-30T08:59:50.127Z,16.42
2023-04-30T09:02:16.677Z,16.66
2023-04-30T09:04:43.156Z,16.78
2023-04-30T09:07:14.266Z,16.58
2023-04-30T09:09:45.832Z,16.57
2023-04-30T09:12:15.269Z,16.66
2023-04-30T09:15:05.179Z,17.26
2023-04-30T09:17:32.750Z,17.43
2023-04-30T09:20:12.870Z,17.31
2023-04-30T09:22:41.210Z,17.32
2023-04-30T09:25:08.951Z,17.38
2023-04-30T09:27:35.868Z,17.29
2023-04-30T09:30:02.596Z,17.41
2023-04-30T09:32:29.113Z,17.28
2023-04-30T09:34:56.069Z,17.30
2023-04-30T09:37:22.717Z,17.18
2023-04-30T09:39:55.627Z,17.16
2023-04-30T09:42:22.463Z,17.01
2023-04-30T09:44:49.027Z,16.95
2023-04-30T09:47:19.786Z,16.97
2023-04-30T09:49:54.589Z,17.46
2023-04-30T09:52:21.421Z,17.41
2023-04-30T09:54:50.622Z,17.18
2023-04-30T09:57:21.431Z,16.95
2023-04-30T09:59:48.739Z,17.20
2023-04-30T10:02:20.304Z,16.96
2023-04-30T10:04:53.330Z,16.88
2023-04-30T10:07:22.689Z,16.76
2023-04-30T10:09:55.258Z,16.95
2023-04-30T10:12:34.288Z,16.79
2023-04-30T10:15:15.112Z,16.89
2023-04-30T10:17:44.421Z,17.10
2023-04-30T10:20:12.817Z,16.97
2023-04-30T10:22:41.824Z,17.11
2023-04-30T10:25:11.353Z,17.01
2023-04-30T10:27:38.005Z,17.20
2023-04-30T10:30:07.910Z,17.04
2023-04-30T10:32:44.767Z,17.15
2023-04-30T10:35:24.358Z,17.01
2023-04-30T10:37:59.671Z,16.83
2023-04-30T10:40:29.136Z,16.92
2023-04-30T10:42:58.174Z,17.17
2023-04-30T10:45:38.088Z,16.90
2023-04-30T10:48:07.928Z,16.95
2023-04-30T10:50:45.027Z,17.04
2023-04-30T10:53:17.010Z,16.91
2023-04-30T10:56:09.805Z,17.12
2023-04-30T10:58:38.469Z,16.96
2023-04-30T11:01:15.077Z,16.96
2023-04-30T11:04:02.471Z,16.94
2023-04-30T11:06:54.171Z,16.78
2023-04-30T11:09:45.112Z,16.71
2023-04-30T11:12:19.619Z,16.72
2023-04-30T11:14:46.381Z,16.62
2023-04-30T11:17:22.759Z,16.62
2023-04-30T11:19:51.715Z,16.60
2023-04-30T11:22:19.151Z,16.54
2023-04-30T11:25:09.803Z,16.68
2023-04-30T11:27:45.081Z,16.79
2023-04-30T11:30:15.077Z,16.89
2023-04-30T11:32:48.351Z,16.83
2023-04-30T11:35:21.303Z,16.97
2023-04-30T11:37:54.789Z,17.02
2023-04-30T11:40:22.058Z,16.81
2023-04-30T11:42:48.562Z,17.01
2023-04-30T11:45:20.917Z,17.09
2023-04-30T11:47:52.423Z,16.99
2023-04-30T11:50:29.870Z,17.29
2023-04-30T11:52:59.293Z,17.00
2023-04-30T11:55:28.470Z,17.05
2023-04-30T11:57:59.253Z,17.00
2023-04-30T12:00:28.693Z,16.88
2023-04-30T12:02:56.320Z,17.04
2023-04-30T12:05:25.154Z,17.00
2023-04-30T12:07:56.908Z,17.31
2023-04-30T12:10:23.824Z,17.20
2023-04-30T12:12:52.778Z,17.24
2023-04-30T12:15:26.165Z,17.21
2023-04-30T12:17:54.551Z,17.45
2023-04-30T12:20:22.976Z,17.43
2023-04-30T12:22:49.754Z,17.50
2023-04-30T12:25:18.603Z,17.47
2023-04-30T12:27:49.876Z,17.41
2023-04-30T12:30:21.262Z,17.55
2023-04-30T12:32:54.517Z,17.42
2023-04-30T12:35:25.574Z,17.29
2023-04-30T12:38:01.024Z,17.18
2023-04-30T12:40:28.036Z,17.57
2023-04-30T12:43:02.814Z,17.72
2023-04-30T12:45:57.913Z,18.16
2023-04-30T12:48:25.519Z,18.09
2023-04-30T12:50:56.707Z,17.85
2023-04-30T12:53:24.582Z,17.80
2023-04-30T12:56:07.868Z,17.85
2023-04-30T12:58:35.082Z,17.64
2023-04-30T13:01:05.314Z,17.52
2023-04-30T13:03:31.863Z,17.73
2023-04-30T13:05:59.139Z,17.71
2023-04-30T13:08:26.157Z,17.84
2023-04-30T13:10:52.474Z,18.08
2023-04-30T13:13:20.336Z,18.13
2023-04-30T13:15:47.105Z,18.33
2023-04-30T13:18:15.730Z,18.72
2023-04-30T13:20:43.882Z,18.76
2023-04-30T13:23:11.886Z,18.48
2023-04-30T13:25:39.253Z,18.43
2023-04-30T13:28:05.871Z,18.45
2023-04-30T13:30:32.292Z,18.45
2023-04-30T13:32:59.265Z,18.84
2023-04-30T13:35:26.048Z,18.51
2023-04-30T13:37:53.487Z,18.44
2023-04-30T13:40:21.295Z,18.47
2023-04-30T13:42:50.537Z,18.27
2023-04-30T13:45:17.235Z,18.35
2023-04-30T13:47:46.191Z,18.65
2023-04-30T13:50:13.201Z,18.58
2023-04-30T13:52:39.710Z,19.01
2023-04-30T13:55:07.092Z,18.95
2023-04-30T13:57:33.550Z,19.12
2023-04-30T14:00:02.747Z,19.06
2023-04-30T14:02:31.850Z,18.62
2023-04-30T14:05:05.682Z,18.60
2023-04-30T14:07:32.627Z,18.59
2023-04-30T14:09:59.222Z,18.46
2023-04-30T14:12:25.674Z,18.33
2023-04-30T14:14:54.459Z,18.29
2023-04-30T14:17:21.146Z,18.31
2023-04-30T14:19:47.780Z,18.36
2023-04-30T14:22:14.673Z,18.23
2023-04-30T14:24:41.127Z,18.19
2023-04-30T14:27:07.633Z,18.22
2023-04-30T14:29:34.048Z,18.10
2023-04-30T14:32:01.264Z,18.16
2023-04-30T14:34:30.231Z,18.18
2023-04-30T14:36:59.306Z,18.14
2023-04-30T14:39:26.247Z,18.23
2023-04-30T14:41:53.538Z,18.13
2023-04-30T14:44:21.243Z,17.86
2023-04-30T14:46:47.810Z,17.97
2023-04-30T14:49:14.250Z,17.90
2023-04-30T14:51:40.779Z,17.96
2023-04-30T14:54:07.158Z,17.93
2023-04-30T14:56:33.843Z,18.16
2023-04-30T14:59:00.380Z,18.07
2023-04-30T15:01:28.459Z,18.15
2023-04-30T15:03:55.289Z,18.06
2023-04-30T15:06:21.827Z,18.19
2023-04-30T15:08:48.296Z,18.20
2023-04-30T15:11:14.961Z,18.09
2023-04-30T15:13:44.049Z,18.16
2023-04-30T15:16:11.521Z,18.20
2023-04-30T15:18:40.798Z,18.16
2023-04-30T15:21:07.319Z,18.16
2023-04-30T15:23:34.145Z,18.12
2023-04-30T15:26:04.467Z,18.16
2023-04-30T15:28:34.342Z,18.14
2023-04-30T15:31:01.680Z,18.04
2023-04-30T15:33:30.611Z,18.08
2023-04-30T15:35:57.658Z,17.98
2023-04-30T15:38:24.159Z,18.13
2023-04-30T15:40:50.651Z,18.13
2023-04-30T15:43:17.902Z,18.26
2023-04-30T15:45:48.281Z,18.22
2023-04-30T15:48:14.924Z,18.25
2023-04-30T15:50:41.370Z,18.22
2023-04-30T15:53:07.740Z,18.20
2023-04-30T15:55:34.290Z,18.11
2023-04-30T15:58:00.926Z,18.05
2023-04-30T16:00:29.157Z,17.97
2023-04-30T16:02:55.815Z,17.85
2023-04-30T16:05:22.296Z,17.77
2023-04-30T16:07:49.573Z,17.85
2023-04-30T16:10:16.346Z,17.83
2023-04-30T16:12:42.872Z,17.80
2023-04-30T16:15:14.677Z,17.81
2023-04-30T16:17:41.129Z,17.70
2023-04-30T16:20:08.485Z,17.65
2023-04-30T16:22:37.508Z,17.64
2023-04-30T16:25:10.014Z,17.65
2023-04-30T16:27:37.779Z,17.64
2023-04-30T16:30:05.677Z,17.58
2023-04-30T16:32:32.345Z,17.57
2023-04-30T16:35:00.918Z,17.53
2023-04-30T16:37:28.669Z,17.42
2023-04-30T16:39:55.348Z,17.43
2023-04-30T16:42:22.006Z,17.49
2023-04-30T16:44:50.730Z,17.52
2023-04-30T16:47:18.992Z,17.53
2023-04-30T16:49:45.431Z,17.46
2023-04-30T16:52:12.591Z,17.43
2023-04-30T16:54:39.055Z,17.41
2023-04-30T16:57:05.690Z,17.37
2023-04-30T16:59:32.198Z,17.42
2023-04-30T17:02:01.873Z,17.37
2023-04-30T17:04:28.236Z,17.36
2023-04-30T17:06:55.117Z,17.30
2023-04-30T17:09:23.908Z,17.24
2023-04-30T17:11:55.215Z,17.18
2023-04-30T17:14:22.545Z,17.16
2023-04-30T17:16:48.994Z,17.16
2023-04-30T17:19:18.114Z,17.17
2023-04-30T17:21:46.822Z,17.09
2023-04-30T17:24:13.286Z,17.04
2023-04-30T17:26:39.772Z,17.01
2023-04-30T17:29:06.342Z,16.94
2023-04-30T17:31:33.042Z,16.93
2023-04-30T17:34:02.570Z,16.90
2023-04-30T17:36:32.138Z,16.79
2023-04-30T17:38:58.681Z,16.74
2023-04-30T17:41:27.756Z,16.68
2023-04-30T17:43:54.152Z,16.60
2023-04-30T17:46:20.609Z,16.57
2023-04-30T17:48:47.191Z,16.48
2023-04-30T17:51:13.800Z,16.42
2023-04-30T17:53:40.613Z,16.39
2023-04-30T17:56:10.237Z,16.32
2023-04-30T17:58:38.422Z,16.24
2023-04-30T18:01:06.481Z,16.17
2023-04-30T18:03:37.964Z,16.07
2023-04-30T18:06:04.421Z,16.04
2023-04-30T18:08:30.919Z,15.94
2023-04-30T18:10:57.797Z,15.80
2023-04-30T18:13:24.367Z,15.71
2023-04-30T18:15:51.438Z,15.59
2023-04-30T18:18:18.471Z,15.47
2023-04-30T18:20:45.067Z,15.42
2023-04-30T18:23:13.603Z,15.24
2023-04-30T18:25:40.807Z,15.16
2023-04-30T18:28:09.805Z,14.90
2023-04-30T18:30:36.881Z,14.76
2023-04-30T18:33:07.158Z,14.62
2023-04-30T18:35:34.612Z,14.50
2023-04-30T18:38:01.859Z,14.38
2023-04-30T18:40:30.981Z,14.22
2023-04-30T18:42:57.403Z,14.08
2023-04-30T18:45:24.025Z,13.94
2023-04-30T18:47:50.654Z,13.85
2023-04-30T18:50:17.901Z,13.69
2023-04-30T18:52:45.184Z,13.56
2023-04-30T18:55:13.674Z,13.49
2023-04-30T18:57:42.377Z,13.41
2023-04-30T19:00:10.677Z,13.26
2023-04-30T19:02:40.472Z,13.13
2023-04-30T19:05:07.492Z,13.06
2023-04-30T19:07:36.647Z,12.97
2023-04-30T19:10:05.649Z,12.90
2023-04-30T19:12:53.630Z,12.82
2023-04-30T19:15:20.002Z,12.73
2023-04-30T19:17:46.421Z,12.59
2023-04-30T19:20:13.166Z,12.54
2023-04-30T19:22:40.729Z,12.45
2023-04-30T19:25:07.601Z,12.39
2023-04-30T19:27:36.499Z,12.35
2023-04-30T19:30:03.021Z,12.28
2023-04-30T19:32:29.528Z,12.25
2023-04-30T19:34:58.973Z,12.17
2023-04-30T19:37:25.671Z,12.10
2023-04-30T19:39:54.925Z,12.06
2023-04-30T19:42:21.561Z,12.00
2023-04-30T19:44:51.048Z,11.94
2023-04-30T19:47:22.722Z,11.91
2023-04-30T19:49:53.134Z,11.87
2023-04-30T19:52:19.769Z,11.82
2023-04-30T19:54:50.226Z,11.79
2023-04-30T19:57:19.606Z,11.72
2023-04-30T19:59:47.210Z,11.66
2023-04-30T20:02:16.787Z,11.62
2023-04-30T20:04:43.212Z,11.57
2023-04-30T20:07:09.585Z,11.52
2023-04-30T20:09:37.248Z,11.51
2023-04-30T20:12:04.141Z,11.50
2023-04-30T20:14:35.867Z,11.46
2023-04-30T20:17:02.533Z,11.42
2023-04-30T20:19:28.913Z,11.39
2023-04-30T20:21:55.301Z,11.39
2023-04-30T20:24:22.021Z,11.34
2023-04-30T20:26:48.424Z,11.30
2023-04-30T20:29:18.501Z,11.25
2023-04-30T20:31:45.152Z,11.25
2023-04-30T20:34:11.790Z,11.21
2023-04-30T20:36:38.637Z,11.16
2023-04-30T20:39:05.094Z,11.14
2023-04-30T20:42:08.869Z,11.08
2023-04-30T20:45:13.334Z,11.09
2023-04-30T20:48:17.401Z,11.02
2023-04-30T20:51:23.398Z,10.98
2023-04-30T20:54:27.625Z,10.93
2023-04-30T20:57:31.654Z,10.88
2023-04-30T21:00:36.198Z,10.85
2023-04-30T21:03:40.396Z,10.79
2023-04-30T21:06:44.837Z,10.77
2023-04-30T21:09:50.382Z,10.72
2023-04-30T21:12:54.538Z,10.68
2023-04-30T21:15:58.373Z,10.64
2023-04-30T21:19:02.403Z,10.59
2023-04-30T21:22:06.589Z,10.56
2023-04-30T21:25:12.171Z,10.53
2023-04-30T21:28:18.952Z,10.49
2023-04-30T21:31:23.637Z,10.45
2023-04-30T21:34:28.069Z,10.43
2023-04-30T21:37:32.318Z,10.43
2023-04-30T21:40:01.814Z,10.39
2023-04-30T21:42:28.920Z,10.38
2023-04-30T21:44:55.627Z,10.43
2023-04-30T21:47:22.186Z,10.39
2023-04-30T21:49:48.523Z,10.38
2023-04-30T21:52:14.963Z,10.36
2023-04-30T21:54:41.460Z,10.36
2023-04-30T21:57:12.645Z,10.35
2023-04-30T21:59:42.188Z,10.32
2023-04-30T22:02:22.864Z,10.31
2023-04-30T22:04:53.558Z,10.26
2023-04-30T22:07:19.949Z,10.24
2023-04-30T22:09:47.013Z,10.19
2023-04-30T22:12:16.025Z,10.14
2023-04-30T22:14:42.510Z,10.11
2023-04-30T22:17:08.994Z,10.06
2023-04-30T22:19:35.456Z,10.02
2023-04-30T22:22:02.018Z,9.99
2023-04-30T22:24:28.519Z,9.96
2023-04-30T22:26:55.220Z,9.95
2023-04-30T22:29:21.678Z,9.89
2023-04-30T22:31:48.116Z,9.93
2023-04-30T22:34:16.777Z,9.88
2023-04-30T22:36:44.348Z,9.86
2023-04-30T22:39:11.748Z,9.79
2023-04-30T22:41:41.259Z,9.75
2023-04-30T22:44:07.637Z,9.71
2023-04-30T22:46:36.534Z,9.67
2023-04-30T22:49:03.132Z,9.62
2023-04-30T22:51:29.646Z,9.61
2023-04-30T22:53:56.663Z,9.56
2023-04-30T22:56:23.382Z,9.54
2023-04-30T22:58:49.718Z,9.48
2023-04-30T23:01:16.628Z,9.46
2023-04-30T23:03:43.055Z,9.42
2023-04-30T23:06:13.065Z,9.43
2023-04-30T23:08:39.491Z,9.39
2023-04-30T23:11:06.277Z,9.38
2023-04-30T23:13:35.274Z,9.36
2023-04-30T23:16:08.824Z,9.33
2023-04-30T23:18:36.917Z,9.31
2023-04-30T23:21:06.050Z,9.29
2023-04-30T23:23:32.747Z,9.24
2023-04-30T23:25:59.269Z,9.20
2023-04-30T23:28:26.119Z,9.16
2023-04-30T23:30:54.687Z,9.13
2023-04-30T23:33:21.558Z,9.09
2023-04-30T23:35:48.106Z,9.05
2023-04-30T23:38:15.397Z,9.03
2023-04-30T23:40:46.989Z,8.98
2023-04-30T23:43:13.321Z,8.94
2023-04-30T23:45:43.610Z,8.90
2023-04-30T23:48:10.405Z,8.89
2023-04-30T23:50:38.047Z,8.86
2023-04-30T23:53:07.710Z,8.85
2023-04-30T23:55:34.877Z,8.83
2023-04-30T23:58:03.850Z,8.80
